Nearby METAR Reports

 

PAEN - Kenai, Alaska, USA
Distance from station: ESE 2mi, 4km
Updated: Tue, 19-Jun-2018 6:53pm AKDT
Light rain, Overcast
Light rain, Overcast
 Wind from WNW
Wind: WNW 6 mph , 9 km/h
Temperature: 54°F , 12°C
Dew Point: 46°F , 8°C
Humidity: 77%
Barometer: 30.07 inHg , 1018.3 hPa
Summary: Light rain
Clouds: Overcast
Visibility: 10 miles , 16 km
Cloud details: Overcast 5000 ft
2018/06/20 02:53 PAEN 200253Z 30005KT 10SM -RA OVC050 12/08 A3007 RMK AO2 RAB48 SLP186 P0000 60000 T01170083 56002
PASX - Soldotna, Alaska, USA
Distance from station: SE 12mi, 19km
Updated: Tue, 19-Jun-2018 6:56pm AKDT
Light rain, Overcast
Light rain, Overcast
 Wind from W
Wind: W 9 mph , 15 km/h
Temperature: 54°F , 12°C
Dew Point: 46°F , 8°C
Humidity: 77%
Barometer: 30.09 inHg , 1019 hPa
Summary: Light rain
Clouds: Overcast
Visibility: 10 miles , 16 km
Cloud details: Mostly cloudy 3300 ft
Overcast 4900 ft
2018/06/20 02:56 PASX 200256Z AUTO 26008KT 10SM -RA BKN033 OVC049 12/08 A3009 RMK AO2 RAB21 SLP199 P0000 60000 T01170078 55001
 
PANC - Anchorage Intl, Alaska, USA
Distance from station: NE 59mi, 96km
Updated: Tue, 19-Jun-2018 6:53pm AKDT
Mostly cloudy
Mostly cloudy
 Wind from ENE
Wind: ENE 3 mph , 6 km/h
Temperature: 63°F , 17°C
Dew Point: 48°F , 9°C
Humidity: 59%
Barometer: 30.04 inHg , 1017.3 hPa
Clouds: Mostly cloudy
Visibility: 10 miles , 16 km
Cloud details: Few Clouds 4500 ft
Partly cloudy 7000 ft
Mostly cloudy 9500 ft
Mostly cloudy 20000 ft
2018/06/20 02:53 PANC 200253Z 06003KT 10SM FEW045 SCT070 BKN095 BKN200 17/09 A3004 RMK AO2 SLP174 T01720094 58005
PALH - Anchorage/Lake H, Alaska, USA
Distance from station: NE 61mi, 99km
Updated: Tue, 19-Jun-2018 6:53pm AKDT
Overcast
Overcast
 Wind from varies
Wind: varies 7 mph , 11 km/h
Temperature: 63°F , 17°C
Dew Point: 48°F , 9°C
Humidity: 59%
Barometer: 30.05 inHg , 1017.6 hPa
Clouds: Overcast
Visibility: 10 miles , 16 km
Cloud details: Mostly cloudy 7000 ft
Overcast 10000 ft
2018/06/20 02:53 PALH 200253Z VRB06KT 10SM BKN070 OVC100 17/09 A3005 RMK AO2 SLP177 T01670094 58005
 
PAHO - Homer, Alaska, USA
Distance from station: S 66mi, 106km
Updated: Tue, 19-Jun-2018 6:53pm AKDT
Overcast
Overcast
 Wind from calm
Wind: Calm
Temperature: 55°F , 13°C
Dew Point: 46°F , 8°C
Humidity: 72%
Barometer: 30.06 inHg , 1017.9 hPa
Clouds: Overcast
Visibility: 10 miles , 16 km
Cloud details: Partly cloudy 4800 ft
Mostly cloudy 6500 ft
Overcast 7500 ft
2018/06/20 02:53 PAHO 200253Z 00000KT 10SM SCT048 BKN065 OVC075 13/08 A3006 RMK AO2 RAB0154E48 SLP179 P0001 60001 T01280078 58004
PAMR - Anchorage/Merril, Alaska, USA
Distance from station: NE 66mi, 106km
Updated: Tue, 19-Jun-2018 6:53pm AKDT
Mostly cloudy
Mostly cloudy
 Wind from N
Wind: N 7 mph , 11 km/h
Temperature: 61°F , 16°C
Dew Point: 50°F , 10°C
Humidity: 68%
Barometer: 30.05 inHg , 1017.6 hPa
Clouds: Mostly cloudy
Visibility: 10 miles , 16 km
Cloud details: Partly cloudy 7000 ft
Mostly cloudy 10000 ft
2018/06/20 02:53 PAMR 200253Z 35006KT 10SM SCT070 BKN100 16/10 A3005 RMK AO2 SLP175 T01610100 58004
 
PAED - Elmendorf Afb, Alaska, USA
Distance from station: NE 69mi, 110km
Updated: Tue, 19-Jun-2018 7:06pm AKDT
Light drizzle, Overcast
Light drizzle, Overcast
 Wind from NNW
Wind: NNW 7 mph , 11 km/h
Temperature: 61°F , 16°C
Dew Point: 50°F , 10°C
Humidity: 68%
Barometer: 30.04 inHg , 1017.3 hPa
Summary: Light Drizzle
Clouds: Overcast
Visibility: 10 miles , 16 km
Cloud details: Mostly cloudy 9500 ft
Overcast 11000 ft
2018/06/20 03:06 PAED 200306Z AUTO 33006KT 10SM -DZ BKN095 OVC110 16/10 A3004 RMK AO2 DZE0257DZB06 SLP168
PAWD - Seward, Alaska, USA
Distance from station: ESE 71mi, 115km
Updated: Tue, 19-Jun-2018 6:53pm AKDT
Overcast
Overcast
 Wind from S
Wind: S 7 mph , 11 km/h
Temperature: 52°F , 11°C
Dew Point: 50°F , 10°C
Humidity: 94%
Barometer: 30.11 inHg , 1019.6 hPa
Clouds: Overcast
Visibility: 10 miles , 16 km
Cloud details: Mostly cloudy 2000 ft
Overcast 6000 ft
2018/06/20 02:53 PAWD 200253Z AUTO 18006KT 10SM BKN020 OVC060 11/10 A3011 RMK AO2 SLP195 T01060100 56005 TSNO
 
PASC - Deadhorse, Alaska, USA
Distance from station: ENE 670mi, 1078km
Updated: Tue, 19-Jun-2018 6:53pm AKDT
Overcast
Overcast
 Wind from ENE
Wind: ENE 14 mph , 22 km/h
Temperature: 36°F , 2°C
Wind Chill: 27°F , -3°C
Dew Point: 30°F , -1°C
Humidity: 81%
Barometer: 30.01 inHg , 1016.3 hPa
Clouds: Overcast
Visibility: 10 miles , 16 km
Cloud details: Few Clouds 900 ft
Mostly cloudy 6500 ft
Overcast 10000 ft
2018/06/20 02:53 PASC 200253Z 06012KT 10SM FEW009 BKN065 OVC100 02/M01 A3001 RMK AO2 SLP163 T00221006 50002
PAAD - Point Thomson, Alaska, USA
Distance from station: ENE 680mi, 1094km
Updated: Tue, 19-Jun-2018 7:15pm AKDT
Overcast
Overcast
 Wind from NE
Wind: NE 13 mph , 20 km/h
Temperature: 32°F , 0°C
Wind Chill: 22°F , -6°C
Dew Point: 30°F , -1°C
Humidity: 93%
Barometer: 30.02 inHg , 1016.6 hPa
Clouds: Overcast
Visibility: 10 miles , 16 km
Cloud details: Overcast 400 ft
2018/06/20 03:15 PAAD 200315Z AUTO 05011KT 10SM OVC004 00/M01 A3002 RMK AO2 T10031014


kenaipeople.com website

Dans Automotive

Lower Peninsula Power Sports

Freddies RoadHouse

Alaska Weather Net

United States Weather Group